sensor_id;sensor_type;location;lat;lon;timestamp;pressure;altitude;pressure_sealevel;temperature;humidity
68380;BME280;57711;53.196;19.638;2023-04-03T00:00:56;101085.61;;;2.70;63.39
68380;BME280;57711;53.196;19.638;2023-04-03T00:03:24;101085.75;;;2.67;63.16
68380;BME280;57711;53.196;19.638;2023-04-03T00:05:51;101088.11;;;2.62;63.08
68380;BME280;57711;53.196;19.638;2023-04-03T00:08:19;101088.24;;;2.59;63.23
68380;BME280;57711;53.196;19.638;2023-04-03T00:10:47;101088.35;;;2.56;63.14
68380;BME280;57711;53.196;19.638;2023-04-03T00:13:16;101094.16;;;2.54;63.27
68380;BME280;57711;53.196;19.638;2023-04-03T00:15:44;101097.02;;;2.53;63.34
68380;BME280;57711;53.196;19.638;2023-04-03T00:18:11;101094.37;;;2.53;63.27
68380;BME280;57711;53.196;19.638;2023-04-03T00:20:39;101093.33;;;2.53;63.28
68380;BME280;57711;53.196;19.638;2023-04-03T00:23:06;101091.65;;;2.50;63.18
68380;BME280;57711;53.196;19.638;2023-04-03T00:25:34;101092.13;;;2.47;63.17
68380;BME280;57711;53.196;19.638;2023-04-03T00:28:02;101091.91;;;2.44;63.13
68380;BME280;57711;53.196;19.638;2023-04-03T00:30:30;101094.15;;;2.41;63.04
68380;BME280;57711;53.196;19.638;2023-04-03T00:32:57;101100.61;;;2.41;63.19
68380;BME280;57711;53.196;19.638;2023-04-03T00:35:25;101096.20;;;2.43;63.07
68380;BME280;57711;53.196;19.638;2023-04-03T00:37:53;101097.73;;;2.45;63.06
68380;BME280;57711;53.196;19.638;2023-04-03T00:40:23;101098.22;;;2.47;63.10
68380;BME280;57711;53.196;19.638;2023-04-03T00:42:56;101097.42;;;2.49;63.09
68380;BME280;57711;53.196;19.638;2023-04-03T00:45:32;101096.52;;;2.49;63.05
68380;BME280;57711;53.196;19.638;2023-04-03T00:48:03;101099.92;;;2.49;63.03
68380;BME280;57711;53.196;19.638;2023-04-03T00:50:35;101100.31;;;2.48;63.00
68380;BME280;57711;53.196;19.638;2023-04-03T00:53:05;101101.05;;;2.48;63.08
68380;BME280;57711;53.196;19.638;2023-04-03T00:55:35;101101.10;;;2.46;62.96
68380;BME280;57711;53.196;19.638;2023-04-03T00:58:03;101101.43;;;2.42;62.90
68380;BME280;57711;53.196;19.638;2023-04-03T01:00:31;101101.19;;;2.40;63.05
68380;BME280;57711;53.196;19.638;2023-04-03T01:02:58;101103.41;;;2.38;62.94
68380;BME280;57711;53.196;19.638;2023-04-03T01:05:27;101103.65;;;2.36;63.03
68380;BME280;57711;53.196;19.638;2023-04-03T01:07:54;101104.31;;;2.33;62.96
68380;BME280;57711;53.196;19.638;2023-04-03T01:10:22;101101.63;;;2.29;62.96
68380;BME280;57711;53.196;19.638;2023-04-03T01:12:50;101104.54;;;2.28;63.06
68380;BME280;57711;53.196;19.638;2023-04-03T01:15:25;101107.46;;;2.26;63.02
68380;BME280;57711;53.196;19.638;2023-04-03T01:17:56;101109.16;;;2.24;63.00
68380;BME280;57711;53.196;19.638;2023-04-03T01:25:38;101113.66;;;2.14;62.97
68380;BME280;57711;53.196;19.638;2023-04-03T01:28:08;101113.66;;;2.14;62.87
68380;BME280;57711;53.196;19.638;2023-04-03T01:31:31;101115.06;;;2.14;62.81
68380;BME280;57711;53.196;19.638;2023-04-03T01:33:32;101120.24;;;2.14;62.77
68380;BME280;57711;53.196;19.638;2023-04-03T01:35:59;101116.98;;;2.16;62.74
68380;BME280;57711;53.196;19.638;2023-04-03T01:38:27;101121.92;;;2.17;62.73
68380;BME280;57711;53.196;19.638;2023-04-03T01:40:54;101122.25;;;2.18;62.82
68380;BME280;57711;53.196;19.638;2023-04-03T01:43:21;101123.80;;;2.19;62.75
68380;BME280;57711;53.196;19.638;2023-04-03T01:45:49;101122.72;;;2.19;62.81
68380;BME280;57711;53.196;19.638;2023-04-03T01:48:16;101125.60;;;2.18;62.69
68380;BME280;57711;53.196;19.638;2023-04-03T01:50:44;101128.17;;;2.17;62.80
68380;BME280;57711;53.196;19.638;2023-04-03T01:53:11;101129.61;;;2.17;62.72
68380;BME280;57711;53.196;19.638;2023-04-03T01:55:38;101129.15;;;2.15;62.74
68380;BME280;57711;53.196;19.638;2023-04-03T01:58:06;101130.29;;;2.13;62.74
68380;BME280;57711;53.196;19.638;2023-04-03T02:00:33;101131.21;;;2.12;62.75
68380;BME280;57711;53.196;19.638;2023-04-03T02:03:01;101132.55;;;2.10;62.82
68380;BME280;57711;53.196;19.638;2023-04-03T02:05:29;101134.40;;;2.08;62.63
68380;BME280;57711;53.196;19.638;2023-04-03T02:07:56;101137.76;;;2.04;62.73
68380;BME280;57711;53.196;19.638;2023-04-03T02:10:23;101138.48;;;2.00;62.59
68380;BME280;57711;53.196;19.638;2023-04-03T02:12:50;101142.11;;;1.94;62.63
68380;BME280;57711;53.196;19.638;2023-04-03T02:15:18;101144.20;;;1.91;62.64
68380;BME280;57711;53.196;19.638;2023-04-03T02:17:46;101142.76;;;1.86;62.51
68380;BME280;57711;53.196;19.638;2023-04-03T02:20:13;101147.33;;;1.83;62.57
68380;BME280;57711;53.196;19.638;2023-04-03T02:22:41;101143.04;;;1.84;62.60
68380;BME280;57711;53.196;19.638;2023-04-03T02:25:09;101146.55;;;1.85;62.52
68380;BME280;57711;53.196;19.638;2023-04-03T02:27:37;101144.21;;;1.85;62.45
68380;BME280;57711;53.196;19.638;2023-04-03T02:30:05;101147.25;;;1.85;62.47
68380;BME280;57711;53.196;19.638;2023-04-03T02:32:33;101148.62;;;1.87;62.52
68380;BME280;57711;53.196;19.638;2023-04-03T02:35:02;101149.04;;;1.85;62.52
68380;BME280;57711;53.196;19.638;2023-04-03T02:37:30;101153.67;;;1.85;62.60
68380;BME280;57711;53.196;19.638;2023-04-03T02:39:58;101156.66;;;1.86;62.70
68380;BME280;57711;53.196;19.638;2023-04-03T02:42:27;101162.20;;;1.86;62.61
68380;BME280;57711;53.196;19.638;2023-04-03T02:44:54;101163.20;;;1.83;62.51
68380;BME280;57711;53.196;19.638;2023-04-03T02:47:24;101167.27;;;1.79;62.42
68380;BME280;57711;53.196;19.638;2023-04-03T02:49:52;101172.91;;;1.77;62.58
68380;BME280;57711;53.196;19.638;2023-04-03T02:52:20;101172.24;;;1.75;62.52
68380;BME280;57711;53.196;19.638;2023-04-03T02:54:48;101172.53;;;1.73;62.58
68380;BME280;57711;53.196;19.638;2023-04-03T02:57:15;101168.29;;;1.71;62.60
68380;BME280;57711;53.196;19.638;2023-04-03T02:59:42;101170.09;;;1.71;62.63
68380;BME280;57711;53.196;19.638;2023-04-03T03:02:11;101171.73;;;1.70;62.50
68380;BME280;57711;53.196;19.638;2023-04-03T03:04:38;101172.62;;;1.65;62.45
68380;BME280;57711;53.196;19.638;2023-04-03T03:07:06;101174.32;;;1.63;62.49
68380;BME280;57711;53.196;19.638;2023-04-03T03:09:33;101172.45;;;1.60;62.49
68380;BME280;57711;53.196;19.638;2023-04-03T03:12:00;101171.50;;;1.62;62.51
68380;BME280;57711;53.196;19.638;2023-04-03T03:14:29;101172.27;;;1.65;62.53
68380;BME280;57711;53.196;19.638;2023-04-03T03:16:56;101175.29;;;1.71;62.50
68380;BME280;57711;53.196;19.638;2023-04-03T03:19:24;101178.38;;;1.73;62.36
68380;BME280;57711;53.196;19.638;2023-04-03T03:21:51;101179.41;;;1.74;62.53
68380;BME280;57711;53.196;19.638;2023-04-03T03:24:18;101177.46;;;1.79;62.62
68380;BME280;57711;53.196;19.638;2023-04-03T03:26:47;101176.74;;;1.79;62.53
68380;BME280;57711;53.196;19.638;2023-04-03T03:29:14;101175.02;;;1.78;62.43
68380;BME280;57711;53.196;19.638;2023-04-03T03:31:43;101177.70;;;1.77;62.40
68380;BME280;57711;53.196;19.638;2023-04-03T03:34:10;101175.23;;;1.77;62.48
68380;BME280;57711;53.196;19.638;2023-04-03T03:36:38;101175.81;;;1.76;62.42
68380;BME280;57711;53.196;19.638;2023-04-03T03:39:05;101179.77;;;1.74;62.43
68380;BME280;57711;53.196;19.638;2023-04-03T03:41:33;101182.26;;;1.70;62.34
68380;BME280;57711;53.196;19.638;2023-04-03T03:44:00;101181.96;;;1.64;62.35
68380;BME280;57711;53.196;19.638;2023-04-03T03:46:30;101180.31;;;1.60;62.38
68380;BME280;57711;53.196;19.638;2023-04-03T03:48:57;101187.35;;;1.58;62.37
68380;BME280;57711;53.196;19.638;2023-04-03T03:51:24;101194.57;;;1.56;62.54
68380;BME280;57711;53.196;19.638;2023-04-03T03:53:52;101192.66;;;1.53;62.50
68380;BME280;57711;53.196;19.638;2023-04-03T03:56:19;101197.66;;;1.49;62.38
68380;BME280;57711;53.196;19.638;2023-04-03T03:58:47;101201.39;;;1.44;62.38
68380;BME280;57711;53.196;19.638;2023-04-03T04:01:15;101204.69;;;1.41;62.41
68380;BME280;57711;53.196;19.638;2023-04-03T04:03:46;101207.52;;;1.37;62.35
68380;BME280;57711;53.196;19.638;2023-04-03T04:06:16;101208.55;;;1.38;62.27
68380;BME280;57711;53.196;19.638;2023-04-03T04:08:45;101208.66;;;1.40;62.28
68380;BME280;57711;53.196;19.638;2023-04-03T04:11:12;101208.81;;;1.41;62.25
68380;BME280;57711;53.196;19.638;2023-04-03T04:13:40;101208.08;;;1.41;62.30
68380;BME280;57711;53.196;19.638;2023-04-03T04:16:09;101209.27;;;1.43;62.28
68380;BME280;57711;53.196;19.638;2023-04-03T04:18:37;101210.52;;;1.43;62.48
68380;BME280;57711;53.196;19.638;2023-04-03T04:21:05;101210.33;;;1.43;62.33
68380;BME280;57711;53.196;19.638;2023-04-03T04:23:32;101213.66;;;1.44;62.39
68380;BME280;57711;53.196;19.638;2023-04-03T04:25:59;101215.77;;;1.45;62.39
68380;BME280;57711;53.196;19.638;2023-04-03T04:28:28;101219.94;;;1.43;62.32
68380;BME280;57711;53.196;19.638;2023-04-03T04:30:56;101217.64;;;1.43;62.43
68380;BME280;57711;53.196;19.638;2023-04-03T04:33:25;101221.84;;;1.40;62.32
68380;BME280;57711;53.196;19.638;2023-04-03T04:35:52;101222.04;;;1.39;62.42
68380;BME280;57711;53.196;19.638;2023-04-03T04:38:20;101223.81;;;1.40;62.47
68380;BME280;57711;53.196;19.638;2023-04-03T04:40:48;101226.02;;;1.38;62.36
68380;BME280;57711;53.196;19.638;2023-04-03T04:43:16;101225.15;;;1.37;62.55
68380;BME280;57711;53.196;19.638;2023-04-03T04:45:44;101227.10;;;1.38;62.56
68380;BME280;57711;53.196;19.638;2023-04-03T04:48:11;101230.91;;;1.40;62.46
68380;BME280;57711;53.196;19.638;2023-04-03T04:50:38;101230.80;;;1.44;62.42
68380;BME280;57711;53.196;19.638;2023-04-03T04:53:05;101232.70;;;1.45;62.32
68380;BME280;57711;53.196;19.638;2023-04-03T04:55:33;101237.69;;;1.45;62.33
68380;BME280;57711;53.196;19.638;2023-04-03T04:58:00;101241.91;;;1.47;62.32
68380;BME280;57711;53.196;19.638;2023-04-03T05:00:29;101242.14;;;1.50;62.38
68380;BME280;57711;53.196;19.638;2023-04-03T05:02:56;101244.34;;;1.54;62.43
68380;BME280;57711;53.196;19.638;2023-04-03T05:05:23;101245.88;;;1.56;62.40
68380;BME280;57711;53.196;19.638;2023-04-03T05:07:51;101245.67;;;1.57;62.36
68380;BME280;57711;53.196;19.638;2023-04-03T05:10:19;101244.77;;;1.57;62.38
68380;BME280;57711;53.196;19.638;2023-04-03T05:12:46;101248.00;;;1.56;62.38
68380;BME280;57711;53.196;19.638;2023-04-03T05:15:13;101247.64;;;1.56;62.31
68380;BME280;57711;53.196;19.638;2023-04-03T05:17:41;101249.00;;;1.58;62.37
68380;BME280;57711;53.196;19.638;2023-04-03T05:20:11;101252.00;;;1.59;62.27
68380;BME280;57711;53.196;19.638;2023-04-03T05:22:39;101254.54;;;1.58;62.34
68380;BME280;57711;53.196;19.638;2023-04-03T05:25:08;101252.49;;;1.56;62.22
68380;BME280;57711;53.196;19.638;2023-04-03T05:27:35;101254.17;;;1.53;62.20
68380;BME280;57711;53.196;19.638;2023-04-03T05:30:03;101256.02;;;1.51;62.18
68380;BME280;57711;53.196;19.638;2023-04-03T05:32:32;101258.55;;;1.50;62.16
68380;BME280;57711;53.196;19.638;2023-04-03T05:35:09;101260.86;;;1.50;62.15
68380;BME280;57711;53.196;19.638;2023-04-03T05:37:37;101264.29;;;1.49;62.20
68380;BME280;57711;53.196;19.638;2023-04-03T05:40:06;101262.82;;;1.50;62.20
68380;BME280;57711;53.196;19.638;2023-04-03T05:42:34;101262.17;;;1.54;62.14
68380;BME280;57711;53.196;19.638;2023-04-03T05:45:02;101269.50;;;1.58;62.36
68380;BME280;57711;53.196;19.638;2023-04-03T05:47:29;101266.52;;;1.62;62.19
68380;BME280;57711;53.196;19.638;2023-04-03T05:49:57;101268.75;;;1.64;62.17
68380;BME280;57711;53.196;19.638;2023-04-03T05:52:33;101266.02;;;1.70;62.24
68380;BME280;57711;53.196;19.638;2023-04-03T05:55:02;101264.83;;;1.79;62.32
68380;BME280;57711;53.196;19.638;2023-04-03T05:57:31;101262.50;;;1.84;62.06
68380;BME280;57711;53.196;19.638;2023-04-03T05:59:58;101263.98;;;1.88;61.97
68380;BME280;57711;53.196;19.638;2023-04-03T06:02:26;101268.87;;;1.95;62.14
68380;BME280;57711;53.196;19.638;2023-04-03T06:04:53;101268.05;;;2.02;62.16
68380;BME280;57711;53.196;19.638;2023-04-03T06:07:23;101269.77;;;2.09;62.09
68380;BME280;57711;53.196;19.638;2023-04-03T06:09:51;101270.21;;;2.16;62.21
68380;BME280;57711;53.196;19.638;2023-04-03T06:12:18;101270.45;;;2.24;62.00
68380;BME280;57711;53.196;19.638;2023-04-03T06:14:47;101270.31;;;2.33;62.04
68380;BME280;57711;53.196;19.638;2023-04-03T06:17:15;101270.97;;;2.39;62.01
68380;BME280;57711;53.196;19.638;2023-04-03T06:19:44;101268.85;;;2.47;62.08
68380;BME280;57711;53.196;19.638;2023-04-03T06:22:11;101271.14;;;2.57;62.09
68380;BME280;57711;53.196;19.638;2023-04-03T06:24:39;101270.08;;;2.66;62.03
68380;BME280;57711;53.196;19.638;2023-04-03T06:27:07;101274.29;;;2.77;62.20
68380;BME280;57711;53.196;19.638;2023-04-03T06:29:34;101273.84;;;2.87;62.18
68380;BME280;57711;53.196;19.638;2023-04-03T06:32:02;101275.40;;;2.97;62.04
68380;BME280;57711;53.196;19.638;2023-04-03T06:34:29;101280.30;;;3.04;62.08
68380;BME280;57711;53.196;19.638;2023-04-03T06:36:56;101282.94;;;3.10;61.84
68380;BME280;57711;53.196;19.638;2023-04-03T06:39:23;101285.11;;;3.17;62.08
68380;BME280;57711;53.196;19.638;2023-04-03T06:41:51;101289.63;;;3.29;62.03
68380;BME280;57711;53.196;19.638;2023-04-03T06:44:25;101293.42;;;3.36;62.03
68380;BME280;57711;53.196;19.638;2023-04-03T06:46:53;101294.44;;;3.42;61.99
68380;BME280;57711;53.196;19.638;2023-04-03T06:49:21;101295.02;;;3.50;62.11
68380;BME280;57711;53.196;19.638;2023-04-03T06:51:48;101300.77;;;3.57;61.86
68380;BME280;57711;53.196;19.638;2023-04-03T06:54:15;101299.25;;;3.59;61.79
68380;BME280;57711;53.196;19.638;2023-04-03T06:56:42;101305.95;;;3.66;61.93
68380;BME280;57711;53.196;19.638;2023-04-03T06:59:11;101311.29;;;3.70;61.74
68380;BME280;57711;53.196;19.638;2023-04-03T07:01:40;101308.84;;;3.73;61.71
68380;BME280;57711;53.196;19.638;2023-04-03T07:04:09;101313.52;;;3.76;61.67
68380;BME280;57711;53.196;19.638;2023-04-03T07:06:36;101313.55;;;3.80;61.59
68380;BME280;57711;53.196;19.638;2023-04-03T07:09:03;101311.89;;;3.85;61.64
68380;BME280;57711;53.196;19.638;2023-04-03T07:11:30;101312.93;;;3.94;61.72
68380;BME280;57711;53.196;19.638;2023-04-03T07:13:58;101314.42;;;4.00;61.68
68380;BME280;57711;53.196;19.638;2023-04-03T07:16:25;101317.42;;;4.05;61.54
68380;BME280;57711;53.196;19.638;2023-04-03T07:18:53;101318.41;;;4.07;61.37
68380;BME280;57711;53.196;19.638;2023-04-03T07:21:20;101319.56;;;4.05;61.38
68380;BME280;57711;53.196;19.638;2023-04-03T07:23:47;101322.33;;;4.07;61.33
68380;BME280;57711;53.196;19.638;2023-04-03T07:26:15;101321.77;;;4.12;61.45
68380;BME280;57711;53.196;19.638;2023-04-03T07:28:42;101321.66;;;4.23;61.51
68380;BME280;57711;53.196;19.638;2023-04-03T07:31:11;101322.78;;;4.33;61.49
68380;BME280;57711;53.196;19.638;2023-04-03T07:33:41;101320.95;;;4.42;61.47
68380;BME280;57711;53.196;19.638;2023-04-03T07:36:10;101324.94;;;4.48;61.39
68380;BME280;57711;53.196;19.638;2023-04-03T07:38:37;101327.83;;;4.52;61.34
68380;BME280;57711;53.196;19.638;2023-04-03T07:41:05;101330.34;;;4.56;61.33
68380;BME280;57711;53.196;19.638;2023-04-03T07:43:33;101334.60;;;4.60;61.33
68380;BME280;57711;53.196;19.638;2023-04-03T07:46:01;101334.48;;;4.66;61.30
68380;BME280;57711;53.196;19.638;2023-04-03T07:48:29;101331.18;;;4.75;61.55
68380;BME280;57711;53.196;19.638;2023-04-03T07:50:59;101331.85;;;4.84;61.36
68380;BME280;57711;53.196;19.638;2023-04-03T07:53:28;101330.52;;;4.97;61.40
68380;BME280;57711;53.196;19.638;2023-04-03T07:55:57;101332.63;;;5.09;61.38
68380;BME280;57711;53.196;19.638;2023-04-03T07:58:24;101332.21;;;5.21;61.38
68380;BME280;57711;53.196;19.638;2023-04-03T08:00:52;101330.23;;;5.28;61.37
68380;BME280;57711;53.196;19.638;2023-04-03T08:03:19;101326.52;;;5.38;61.33
68380;BME280;57711;53.196;19.638;2023-04-03T08:05:48;101329.55;;;5.49;61.31
68380;BME280;57711;53.196;19.638;2023-04-03T08:08:18;101333.90;;;5.62;61.36
68380;BME280;57711;53.196;19.638;2023-04-03T08:10:52;101333.86;;;5.77;61.58
68380;BME280;57711;53.196;19.638;2023-04-03T08:13:22;101333.25;;;5.88;61.26
68380;BME280;57711;53.196;19.638;2023-04-03T08:15:49;101333.98;;;5.99;61.21
68380;BME280;57711;53.196;19.638;2023-04-03T08:18:16;101332.93;;;6.06;61.24
68380;BME280;57711;53.196;19.638;2023-04-03T08:20:45;101327.38;;;6.09;60.92
68380;BME280;57711;53.196;19.638;2023-04-03T08:23:12;101331.44;;;6.14;61.04
68380;BME280;57711;53.196;19.638;2023-04-03T08:25:41;101330.30;;;6.15;60.91
68380;BME280;57711;53.196;19.638;2023-04-03T08:28:12;101329.34;;;6.16;60.90
68380;BME280;57711;53.196;19.638;2023-04-03T08:30:41;101340.72;;;6.18;60.82
68380;BME280;57711;53.196;19.638;2023-04-03T08:33:09;101333.96;;;6.06;60.56
68380;BME280;57711;53.196;19.638;2023-04-03T08:35:41;101335.16;;;6.01;60.63
68380;BME280;57711;53.196;19.638;2023-04-03T08:38:09;101332.41;;;6.09;60.83
68380;BME280;57711;53.196;19.638;2023-04-03T08:40:38;101337.92;;;6.10;60.56
68380;BME280;57711;53.196;19.638;2023-04-03T08:43:30;101340.25;;;6.03;60.50
68380;BME280;57711;53.196;19.638;2023-04-03T08:46:05;101342.39;;;5.96;60.39
68380;BME280;57711;53.196;19.638;2023-04-03T08:48:36;101349.20;;;5.93;60.48
68380;BME280;57711;53.196;19.638;2023-04-03T08:51:19;101343.92;;;5.87;60.35
68380;BME280;57711;53.196;19.638;2023-04-03T08:53:58;101345.33;;;5.77;60.17
68380;BME280;57711;53.196;19.638;2023-04-03T08:56:30;101345.40;;;5.65;60.31
68380;BME280;57711;53.196;19.638;2023-04-03T08:59:00;101345.20;;;5.59;60.18
68380;BME280;57711;53.196;19.638;2023-04-03T09:04:10;101345.83;;;5.64;60.50
68380;BME280;57711;53.196;19.638;2023-04-03T09:06:39;101346.70;;;5.75;60.42
68380;BME280;57711;53.196;19.638;2023-04-03T09:09:21;101343.70;;;5.81;60.15
68380;BME280;57711;53.196;19.638;2023-04-03T09:16:55;101342.48;;;6.05;60.30
68380;BME280;57711;53.196;19.638;2023-04-03T09:19:41;101345.73;;;6.11;59.93
68380;BME280;57711;53.196;19.638;2023-04-03T09:22:23;101347.98;;;6.10;60.02
68380;BME280;57711;53.196;19.638;2023-04-03T09:25:02;101342.66;;;6.09;59.82
68380;BME280;57711;53.196;19.638;2023-04-03T09:27:35;101341.19;;;6.02;59.92
68380;BME280;57711;53.196;19.638;2023-04-03T09:30:03;101342.13;;;5.98;59.89
68380;BME280;57711;53.196;19.638;2023-04-03T09:32:33;101346.44;;;6.01;59.89
68380;BME280;57711;53.196;19.638;2023-04-03T09:35:04;101345.64;;;5.89;59.58
68380;BME280;57711;53.196;19.638;2023-04-03T09:37:53;101347.27;;;5.78;59.65
68380;BME280;57711;53.196;19.638;2023-04-03T09:42:58;101338.13;;;5.88;59.66
68380;BME280;57711;53.196;19.638;2023-04-03T09:45:30;101339.61;;;5.91;59.78
68380;BME280;57711;53.196;19.638;2023-04-03T09:48:19;101347.51;;;5.87;59.53
68380;BME280;57711;53.196;19.638;2023-04-03T09:53:43;101345.27;;;5.89;59.61
68380;BME280;57711;53.196;19.638;2023-04-03T09:58:46;101340.65;;;5.95;59.51
68380;BME280;57711;53.196;19.638;2023-04-03T10:01:37;101342.45;;;5.95;59.43
68380;BME280;57711;53.196;19.638;2023-04-03T10:04:18;101340.50;;;6.05;59.81
68380;BME280;57711;53.196;19.638;2023-04-03T10:06:52;101339.96;;;6.32;59.95
68380;BME280;57711;53.196;19.638;2023-04-03T10:09:28;101336.52;;;6.59;59.85
68380;BME280;57711;53.196;19.638;2023-04-03T10:12:12;101330.33;;;6.89;59.92
68380;BME280;57711;53.196;19.638;2023-04-03T10:14:59;101326.57;;;7.17;59.91
68380;BME280;57711;53.196;19.638;2023-04-03T10:17:37;101322.19;;;7.40;59.87
68380;BME280;57711;53.196;19.638;2023-04-03T10:23:05;101323.02;;;7.86;59.83
68380;BME280;57711;53.196;19.638;2023-04-03T10:32:02;101322.85;;;7.92;59.08
68380;BME280;57711;53.196;19.638;2023-04-03T10:34:38;101319.58;;;7.78;58.90
68380;BME280;57711;53.196;19.638;2023-04-03T10:37:29;101315.95;;;7.66;58.91
68380;BME280;57711;53.196;19.638;2023-04-03T10:43:24;101303.58;;;7.78;59.20
68380;BME280;57711;53.196;19.638;2023-04-03T10:51:45;101300.96;;;7.52;58.80
68380;BME280;57711;53.196;19.638;2023-04-03T10:54:33;101294.02;;;7.66;59.08
68380;BME280;57711;53.196;19.638;2023-04-03T10:57:05;101297.90;;;7.85;58.87
68380;BME280;57711;53.196;19.638;2023-04-03T11:02:28;101301.98;;;7.83;58.78
68380;BME280;57711;53.196;19.638;2023-04-03T11:05:04;101296.92;;;7.95;58.87
68380;BME280;57711;53.196;19.638;2023-04-03T11:07:43;101288.79;;;8.05;58.75
68380;BME280;57711;53.196;19.638;2023-04-03T11:10:41;101289.23;;;8.09;58.59
68380;BME280;57711;53.196;19.638;2023-04-03T11:13:15;101295.08;;;7.96;58.49
68380;BME280;57711;53.196;19.638;2023-04-03T11:15:44;101296.55;;;7.89;58.37
68380;BME280;57711;53.196;19.638;2023-04-03T11:18:20;101298.73;;;7.92;58.57
68380;BME280;57711;53.196;19.638;2023-04-03T11:21:04;101303.67;;;7.91;58.44
68380;BME280;57711;53.196;19.638;2023-04-03T11:23:36;101295.81;;;7.92;58.36
68380;BME280;57711;53.196;19.638;2023-04-03T11:26:20;101290.34;;;8.03;58.50
68380;BME280;57711;53.196;19.638;2023-04-03T11:28:57;101293.23;;;8.05;58.37
68380;BME280;57711;53.196;19.638;2023-04-03T11:34:21;101281.73;;;8.16;58.51
68380;BME280;57711;53.196;19.638;2023-04-03T11:36:55;101274.94;;;8.30;58.51
68380;BME280;57711;53.196;19.638;2023-04-03T11:39:34;101279.22;;;8.25;58.28
68380;BME280;57711;53.196;19.638;2023-04-03T11:42:31;101281.65;;;8.12;58.02
68380;BME280;57711;53.196;19.638;2023-04-03T11:47:51;101276.91;;;7.92;58.03
68380;BME280;57711;53.196;19.638;2023-04-03T11:50:43;101277.77;;;7.96;57.97
68380;BME280;57711;53.196;19.638;2023-04-03T11:58:31;101264.47;;;8.39;58.25
68380;BME280;57711;53.196;19.638;2023-04-03T12:00:59;101265.17;;;8.36;57.82
68380;BME280;57711;53.196;19.638;2023-04-03T12:11:25;101261.23;;;8.36;57.53
68380;BME280;57711;53.196;19.638;2023-04-03T12:18:56;101247.56;;;8.41;57.87
68380;BME280;57711;53.196;19.638;2023-04-03T12:37:51;101230.41;;;8.83;57.62
68380;BME280;57711;53.196;19.638;2023-04-03T12:43:17;101237.30;;;8.52;56.95
68380;BME280;57711;53.196;19.638;2023-04-03T12:46:04;101237.56;;;8.48;57.17
68380;BME280;57711;53.196;19.638;2023-04-03T12:48:37;101237.06;;;8.53;57.25
68380;BME280;57711;53.196;19.638;2023-04-03T12:51:05;101234.02;;;8.53;56.90
68380;BME280;57711;53.196;19.638;2023-04-03T12:53:35;101233.88;;;8.44;56.67
68380;BME280;57711;53.196;19.638;2023-04-03T12:56:22;101240.30;;;8.28;56.72
68380;BME280;57711;53.196;19.638;2023-04-03T12:58:52;101234.42;;;8.21;56.80
68380;BME280;57711;53.196;19.638;2023-04-03T13:01:26;101234.93;;;8.27;57.03
68380;BME280;57711;53.196;19.638;2023-04-03T13:03:56;101232.56;;;8.33;57.03
68380;BME280;57711;53.196;19.638;2023-04-03T13:06:27;101234.70;;;8.31;56.76
68380;BME280;57711;53.196;19.638;2023-04-03T13:08:57;101231.85;;;8.19;56.64
68380;BME280;57711;53.196;19.638;2023-04-03T13:11:40;101223.44;;;8.18;56.79
68380;BME280;57711;53.196;19.638;2023-04-03T13:14:19;101233.95;;;8.08;56.46
68380;BME280;57711;53.196;19.638;2023-04-03T13:17:03;101238.63;;;7.88;56.55
68380;BME280;57711;53.196;19.638;2023-04-03T13:19:30;101242.94;;;7.74;56.42
68380;BME280;57711;53.196;19.638;2023-04-03T13:22:04;101237.33;;;7.74;56.82
68380;BME280;57711;53.196;19.638;2023-04-03T13:24:35;101233.78;;;7.88;56.87
68380;BME280;57711;53.196;19.638;2023-04-03T13:27:05;101234.25;;;8.04;56.95
68380;BME280;57711;53.196;19.638;2023-04-03T13:29:35;101236.34;;;8.14;56.81
68380;BME280;57711;53.196;19.638;2023-04-03T13:32:04;101240.28;;;8.05;56.63
68380;BME280;57711;53.196;19.638;2023-04-03T13:34:40;101236.46;;;7.91;56.36
68380;BME280;57711;53.196;19.638;2023-04-03T13:37:28;101234.96;;;7.78;56.24
68380;BME280;57711;53.196;19.638;2023-04-03T13:42:37;101233.69;;;7.81;56.54
68380;BME280;57711;53.196;19.638;2023-04-03T13:45:26;101235.27;;;7.70;56.10
68380;BME280;57711;53.196;19.638;2023-04-03T13:48:15;101240.30;;;7.52;56.21
68380;BME280;57711;53.196;19.638;2023-04-03T13:50:59;101238.16;;;7.49;56.30
68380;BME280;57711;53.196;19.638;2023-04-03T13:53:29;101233.27;;;7.59;56.57
68380;BME280;57711;53.196;19.638;2023-04-03T13:58:33;101239.48;;;7.51;56.18
68380;BME280;57711;53.196;19.638;2023-04-03T14:03:40;101242.14;;;7.22;55.95
68380;BME280;57711;53.196;19.638;2023-04-03T14:06:13;101238.64;;;7.20;56.21
68380;BME280;57711;53.196;19.638;2023-04-03T14:08:41;101241.88;;;7.17;56.08
68380;BME280;57711;53.196;19.638;2023-04-03T14:11:26;101236.89;;;7.07;55.94
68380;BME280;57711;53.196;19.638;2023-04-03T14:13:58;101237.34;;;6.99;55.91
68380;BME280;57711;53.196;19.638;2023-04-03T14:16:31;101229.77;;;7.00;55.98
68380;BME280;57711;53.196;19.638;2023-04-03T14:18:59;101235.00;;;6.96;56.08
68380;BME280;57711;53.196;19.638;2023-04-03T14:21:26;101240.58;;;6.87;55.92
68380;BME280;57711;53.196;19.638;2023-04-03T14:23:53;101241.69;;;6.77;55.79
68380;BME280;57711;53.196;19.638;2023-04-03T14:26:22;101236.31;;;6.76;55.93
68380;BME280;57711;53.196;19.638;2023-04-03T14:28:53;101236.58;;;6.78;55.97
68380;BME280;57711;53.196;19.638;2023-04-03T14:31:21;101241.73;;;6.76;55.88
68380;BME280;57711;53.196;19.638;2023-04-03T14:33:49;101238.63;;;6.71;55.66
68380;BME280;57711;53.196;19.638;2023-04-03T14:36:20;101237.98;;;6.60;55.75
68380;BME280;57711;53.196;19.638;2023-04-03T14:38:49;101237.89;;;6.49;55.64
68380;BME280;57711;53.196;19.638;2023-04-03T14:41:19;101235.64;;;6.44;55.67